If you wish to contribute or participate in the discussions about articles you are invited to join SKYbrary as a registered user

 Actions

Sørkjosen Airport

From SKYbrary Wiki

ENSR
Airport
ICAO: ENSR – IATA: SOJ
Summary
Name Sørkjosen Airport
Region Europe
Territory Norway NO.gif
Location Sørkjosen, Nordreisa, Troms
Serving Sørkjosen
Coordinates 69° 47' 11.27" N, 20° 57' 35.36" E
Runways
Designator Length Width Surface ROPS
15/33 919 m3,015.092 ft
30 m98.425 ft
ASP /


METAR
Observation ENSR 211650Z 17009KT 9999 FEW025 BKN055 06/M00 Q1006 RMK WIND 1119FT VRB06G18KT
Station Sorkjosen
Date/Time 21 April 2019 16:50:00
Wind direction 170°
Wind speed 09 kts
Lowest cloud amount few clouds
Temperature 6°C
Dew point
Humidity 65%
QNH 1006 hPa
Weather condition n/a

CFIT
Tag(s) Altimeter Temperature Error Correction
GND
Tag(s) Aircraft Ground De/Anti Icing
WX
Tag(s) Low Level Turbulence

Sørkjosen Airport

ICAO: ENSR IATA: SOJ

Description

Airport in Sørkjosen in the municipality of Nordreisa, Troms in Northern Norway.

Climatology

Borderline Subpolar Oceanic/Continental subarctic climate (because of winter temperatures) (Köppen climate classification Cfc/Dfc) - uniform precipitation distribution, temperatures are moderated by the proximity of the ocean and warm currents - cool summers and comparatively mild winters.

Heavy snowfalls in winter.

Maps

Terrain

Loading map...

Airport Layout

Loading map...


Accidents & Serious Incidents at or in vicinity of ENSR

None on SKYbrary